sensor_id;sensor_type;location;lat;lon;timestamp;P1;durP1;ratioP1;P2;durP2;ratioP2
4595;SDS011;2310;49.978;8.742;2024-01-15T00:02:49;42.07;;;21.53;;
4595;SDS011;2310;49.978;8.742;2024-01-15T00:06:51;42.20;;;20.50;;
4595;SDS011;2310;49.978;8.742;2024-01-15T00:10:52;40.40;;;19.77;;
4595;SDS011;2310;49.978;8.742;2024-01-15T00:14:54;40.40;;;19.80;;
4595;SDS011;2310;49.978;8.742;2024-01-15T00:18:55;38.13;;;19.33;;
4595;SDS011;2310;49.978;8.742;2024-01-15T00:22:57;35.70;;;19.27;;
4595;SDS011;2310;49.978;8.742;2024-01-15T00:26:58;37.33;;;19.17;;
4595;SDS011;2310;49.978;8.742;2024-01-15T00:30:59;33.37;;;19.90;;
4595;SDS011;2310;49.978;8.742;2024-01-15T00:35:01;38.10;;;18.97;;
4595;SDS011;2310;49.978;8.742;2024-01-15T00:39:02;36.83;;;18.60;;
4595;SDS011;2310;49.978;8.742;2024-01-15T00:43:05;30.50;;;16.37;;
4595;SDS011;2310;49.978;8.742;2024-01-15T00:47:08;30.53;;;16.73;;
4595;SDS011;2310;49.978;8.742;2024-01-15T00:51:10;36.40;;;20.33;;
4595;SDS011;2310;49.978;8.742;2024-01-15T00:55:11;33.13;;;18.37;;
4595;SDS011;2310;49.978;8.742;2024-01-15T00:59:12;34.40;;;19.80;;
4595;SDS011;2310;49.978;8.742;2024-01-15T01:03:15;37.63;;;20.23;;
4595;SDS011;2310;49.978;8.742;2024-01-15T01:07:17;36.33;;;20.80;;
4595;SDS011;2310;49.978;8.742;2024-01-15T01:11:18;35.23;;;20.30;;
4595;SDS011;2310;49.978;8.742;2024-01-15T01:15:20;41.63;;;20.47;;
4595;SDS011;2310;49.978;8.742;2024-01-15T01:19:22;42.87;;;21.20;;
4595;SDS011;2310;49.978;8.742;2024-01-15T01:23:24;36.50;;;20.23;;
4595;SDS011;2310;49.978;8.742;2024-01-15T01:27:25;36.93;;;19.30;;
4595;SDS011;2310;49.978;8.742;2024-01-15T01:31:27;34.83;;;19.67;;
4595;SDS011;2310;49.978;8.742;2024-01-15T01:35:29;41.43;;;18.70;;
4595;SDS011;2310;49.978;8.742;2024-01-15T01:39:30;36.47;;;19.97;;
4595;SDS011;2310;49.978;8.742;2024-01-15T01:43:32;33.13;;;18.17;;
4595;SDS011;2310;49.978;8.742;2024-01-15T01:47:33;37.03;;;19.37;;
4595;SDS011;2310;49.978;8.742;2024-01-15T01:51:35;33.20;;;19.27;;
4595;SDS011;2310;49.978;8.742;2024-01-15T01:55:40;38.97;;;23.30;;
4595;SDS011;2310;49.978;8.742;2024-01-15T01:59:41;38.70;;;19.67;;
4595;SDS011;2310;49.978;8.742;2024-01-15T02:03:43;34.10;;;17.70;;
4595;SDS011;2310;49.978;8.742;2024-01-15T02:07:45;39.10;;;19.13;;
4595;SDS011;2310;49.978;8.742;2024-01-15T02:11:47;34.40;;;20.17;;
4595;SDS011;2310;49.978;8.742;2024-01-15T02:15:48;34.13;;;19.30;;
4595;SDS011;2310;49.978;8.742;2024-01-15T02:19:50;34.43;;;18.77;;
4595;SDS011;2310;49.978;8.742;2024-01-15T02:23:51;37.67;;;18.57;;
4595;SDS011;2310;49.978;8.742;2024-01-15T02:27:53;37.40;;;18.37;;
4595;SDS011;2310;49.978;8.742;2024-01-15T02:31:55;36.60;;;19.50;;
4595;SDS011;2310;49.978;8.742;2024-01-15T02:35:56;36.27;;;18.27;;
4595;SDS011;2310;49.978;8.742;2024-01-15T02:39:57;35.33;;;20.27;;
4595;SDS011;2310;49.978;8.742;2024-01-15T02:43:59;32.60;;;21.03;;
4595;SDS011;2310;49.978;8.742;2024-01-15T02:48:00;31.33;;;17.63;;
4595;SDS011;2310;49.978;8.742;2024-01-15T02:52:02;30.33;;;17.93;;
4595;SDS011;2310;49.978;8.742;2024-01-15T02:56:04;33.43;;;17.57;;
4595;SDS011;2310;49.978;8.742;2024-01-15T03:00:06;36.90;;;19.53;;
4595;SDS011;2310;49.978;8.742;2024-01-15T03:04:08;32.90;;;17.60;;
4595;SDS011;2310;49.978;8.742;2024-01-15T03:08:10;29.80;;;18.77;;
4595;SDS011;2310;49.978;8.742;2024-01-15T03:12:11;40.60;;;19.40;;
4595;SDS011;2310;49.978;8.742;2024-01-15T03:16:13;32.47;;;17.50;;
4595;SDS011;2310;49.978;8.742;2024-01-15T03:20:14;31.97;;;17.50;;
4595;SDS011;2310;49.978;8.742;2024-01-15T03:24:15;35.80;;;18.07;;
4595;SDS011;2310;49.978;8.742;2024-01-15T03:28:16;34.37;;;19.37;;
4595;SDS011;2310;49.978;8.742;2024-01-15T03:32:18;31.93;;;19.27;;
4595;SDS011;2310;49.978;8.742;2024-01-15T03:36:20;37.63;;;18.50;;
4595;SDS011;2310;49.978;8.742;2024-01-15T03:40:22;36.97;;;19.43;;
4595;SDS011;2310;49.978;8.742;2024-01-15T03:44:24;37.50;;;18.87;;
4595;SDS011;2310;49.978;8.742;2024-01-15T03:48:25;28.67;;;16.63;;
4595;SDS011;2310;49.978;8.742;2024-01-15T03:52:27;38.97;;;17.60;;
4595;SDS011;2310;49.978;8.742;2024-01-15T03:56:28;29.93;;;15.63;;
4595;SDS011;2310;49.978;8.742;2024-01-15T04:00:30;32.03;;;17.17;;
4595;SDS011;2310;49.978;8.742;2024-01-15T04:04:31;30.93;;;16.40;;
4595;SDS011;2310;49.978;8.742;2024-01-15T04:08:32;32.70;;;17.00;;
4595;SDS011;2310;49.978;8.742;2024-01-15T04:12:35;31.30;;;17.13;;
4595;SDS011;2310;49.978;8.742;2024-01-15T04:16:37;33.40;;;17.43;;
4595;SDS011;2310;49.978;8.742;2024-01-15T04:20:38;30.63;;;16.57;;
4595;SDS011;2310;49.978;8.742;2024-01-15T04:24:40;30.10;;;14.93;;
4595;SDS011;2310;49.978;8.742;2024-01-15T04:28:41;32.27;;;18.17;;
4595;SDS011;2310;49.978;8.742;2024-01-15T04:32:42;32.47;;;17.20;;
4595;SDS011;2310;49.978;8.742;2024-01-15T04:36:44;27.13;;;15.40;;
4595;SDS011;2310;49.978;8.742;2024-01-15T04:40:45;30.47;;;17.00;;
4595;SDS011;2310;49.978;8.742;2024-01-15T04:44:47;35.00;;;15.67;;
4595;SDS011;2310;49.978;8.742;2024-01-15T04:48:48;34.40;;;18.00;;
4595;SDS011;2310;49.978;8.742;2024-01-15T04:52:50;27.87;;;14.90;;
4595;SDS011;2310;49.978;8.742;2024-01-15T04:56:51;32.50;;;15.87;;
4595;SDS011;2310;49.978;8.742;2024-01-15T05:00:53;25.50;;;14.10;;
4595;SDS011;2310;49.978;8.742;2024-01-15T05:04:55;29.70;;;14.90;;
4595;SDS011;2310;49.978;8.742;2024-01-15T05:08:56;30.03;;;17.03;;
4595;SDS011;2310;49.978;8.742;2024-01-15T05:12:58;32.13;;;14.33;;
4595;SDS011;2310;49.978;8.742;2024-01-15T05:16:59;29.10;;;16.50;;
4595;SDS011;2310;49.978;8.742;2024-01-15T05:21:00;34.67;;;15.47;;
4595;SDS011;2310;49.978;8.742;2024-01-15T05:25:03;26.87;;;14.70;;
4595;SDS011;2310;49.978;8.742;2024-01-15T05:29:05;35.43;;;16.30;;
4595;SDS011;2310;49.978;8.742;2024-01-15T05:33:07;27.67;;;15.10;;
4595;SDS011;2310;49.978;8.742;2024-01-15T05:37:08;28.47;;;15.33;;
4595;SDS011;2310;49.978;8.742;2024-01-15T05:41:10;24.47;;;14.60;;
4595;SDS011;2310;49.978;8.742;2024-01-15T05:45:11;31.83;;;16.97;;
4595;SDS011;2310;49.978;8.742;2024-01-15T05:49:13;26.10;;;14.93;;
4595;SDS011;2310;49.978;8.742;2024-01-15T05:53:16;27.77;;;17.30;;
4595;SDS011;2310;49.978;8.742;2024-01-15T05:57:17;32.03;;;14.30;;
4595;SDS011;2310;49.978;8.742;2024-01-15T06:01:19;28.73;;;16.67;;
4595;SDS011;2310;49.978;8.742;2024-01-15T06:05:20;28.93;;;17.00;;
4595;SDS011;2310;49.978;8.742;2024-01-15T06:09:22;27.53;;;15.73;;
4595;SDS011;2310;49.978;8.742;2024-01-15T06:13:24;30.13;;;16.33;;
4595;SDS011;2310;49.978;8.742;2024-01-15T06:17:25;36.00;;;17.23;;
4595;SDS011;2310;49.978;8.742;2024-01-15T06:21:27;30.07;;;17.10;;
4595;SDS011;2310;49.978;8.742;2024-01-15T06:25:29;26.70;;;15.27;;
4595;SDS011;2310;49.978;8.742;2024-01-15T06:29:30;29.03;;;16.77;;
4595;SDS011;2310;49.978;8.742;2024-01-15T06:33:31;35.53;;;16.53;;
4595;SDS011;2310;49.978;8.742;2024-01-15T06:37:34;32.13;;;16.60;;
4595;SDS011;2310;49.978;8.742;2024-01-15T06:41:35;25.80;;;15.10;;
4595;SDS011;2310;49.978;8.742;2024-01-15T06:45:39;35.50;;;17.60;;
4595;SDS011;2310;49.978;8.742;2024-01-15T06:49:40;33.33;;;18.73;;
4595;SDS011;2310;49.978;8.742;2024-01-15T06:53:42;29.70;;;16.97;;
4595;SDS011;2310;49.978;8.742;2024-01-15T06:57:43;23.93;;;16.17;;
4595;SDS011;2310;49.978;8.742;2024-01-15T07:01:45;33.63;;;15.60;;
4595;SDS011;2310;49.978;8.742;2024-01-15T07:05:47;28.77;;;16.90;;
4595;SDS011;2310;49.978;8.742;2024-01-15T07:09:48;27.70;;;15.27;;
4595;SDS011;2310;49.978;8.742;2024-01-15T07:13:52;26.70;;;16.43;;
4595;SDS011;2310;49.978;8.742;2024-01-15T07:17:53;25.43;;;14.83;;
4595;SDS011;2310;49.978;8.742;2024-01-15T07:21:55;31.70;;;15.97;;
4595;SDS011;2310;49.978;8.742;2024-01-15T07:25:58;29.93;;;16.00;;
4595;SDS011;2310;49.978;8.742;2024-01-15T07:29:59;28.57;;;15.87;;
4595;SDS011;2310;49.978;8.742;2024-01-15T07:34:02;24.27;;;14.57;;
4595;SDS011;2310;49.978;8.742;2024-01-15T07:38:04;29.33;;;15.90;;
4595;SDS011;2310;49.978;8.742;2024-01-15T07:42:05;30.30;;;16.77;;
4595;SDS011;2310;49.978;8.742;2024-01-15T07:46:07;30.77;;;17.50;;
4595;SDS011;2310;49.978;8.742;2024-01-15T07:50:08;25.93;;;15.20;;
4595;SDS011;2310;49.978;8.742;2024-01-15T07:54:10;32.57;;;15.73;;
4595;SDS011;2310;49.978;8.742;2024-01-15T07:58:12;28.10;;;16.17;;
4595;SDS011;2310;49.978;8.742;2024-01-15T08:02:16;25.37;;;16.07;;
4595;SDS011;2310;49.978;8.742;2024-01-15T08:06:17;30.90;;;16.70;;
4595;SDS011;2310;49.978;8.742;2024-01-15T08:10:19;22.20;;;13.40;;
4595;SDS011;2310;49.978;8.742;2024-01-15T08:14:21;28.47;;;16.87;;
4595;SDS011;2310;49.978;8.742;2024-01-15T08:18:23;27.27;;;15.27;;
4595;SDS011;2310;49.978;8.742;2024-01-15T08:22:25;31.77;;;18.87;;
4595;SDS011;2310;49.978;8.742;2024-01-15T08:26:26;31.93;;;17.40;;
4595;SDS011;2310;49.978;8.742;2024-01-15T08:30:27;26.73;;;16.43;;
4595;SDS011;2310;49.978;8.742;2024-01-15T08:34:30;31.23;;;16.30;;
4595;SDS011;2310;49.978;8.742;2024-01-15T08:38:33;28.57;;;15.80;;
4595;SDS011;2310;49.978;8.742;2024-01-15T08:42:34;24.07;;;15.60;;
4595;SDS011;2310;49.978;8.742;2024-01-15T08:46:36;26.13;;;15.17;;
4595;SDS011;2310;49.978;8.742;2024-01-15T08:50:38;29.97;;;17.37;;
4595;SDS011;2310;49.978;8.742;2024-01-15T08:54:40;27.20;;;15.60;;
4595;SDS011;2310;49.978;8.742;2024-01-15T08:58:41;24.90;;;15.83;;
4595;SDS011;2310;49.978;8.742;2024-01-15T09:02:43;30.03;;;16.10;;
4595;SDS011;2310;49.978;8.742;2024-01-15T09:06:45;29.90;;;17.10;;
4595;SDS011;2310;49.978;8.742;2024-01-15T09:10:50;24.83;;;14.80;;
4595;SDS011;2310;49.978;8.742;2024-01-15T09:14:51;26.10;;;14.37;;
4595;SDS011;2310;49.978;8.742;2024-01-15T09:18:55;27.67;;;16.70;;
4595;SDS011;2310;49.978;8.742;2024-01-15T09:22:58;28.83;;;16.47;;
4595;SDS011;2310;49.978;8.742;2024-01-15T09:26:59;24.80;;;15.57;;
4595;SDS011;2310;49.978;8.742;2024-01-15T09:31:01;22.37;;;12.47;;
4595;SDS011;2310;49.978;8.742;2024-01-15T09:35:03;28.60;;;15.93;;
4595;SDS011;2310;49.978;8.742;2024-01-15T09:39:05;24.47;;;14.63;;
4595;SDS011;2310;49.978;8.742;2024-01-15T09:43:08;27.90;;;15.50;;
4595;SDS011;2310;49.978;8.742;2024-01-15T09:47:11;28.27;;;16.83;;
4595;SDS011;2310;49.978;8.742;2024-01-15T09:51:14;25.60;;;15.00;;
4595;SDS011;2310;49.978;8.742;2024-01-15T09:55:17;28.50;;;17.03;;
4595;SDS011;2310;49.978;8.742;2024-01-15T09:59:18;25.73;;;15.47;;
4595;SDS011;2310;49.978;8.742;2024-01-15T10:03:21;26.43;;;15.97;;
4595;SDS011;2310;49.978;8.742;2024-01-15T10:07:22;23.27;;;15.57;;
4595;SDS011;2310;49.978;8.742;2024-01-15T10:11:26;23.77;;;16.17;;
4595;SDS011;2310;49.978;8.742;2024-01-15T10:15:27;22.10;;;15.57;;
4595;SDS011;2310;49.978;8.742;2024-01-15T10:19:30;25.07;;;14.33;;
4595;SDS011;2310;49.978;8.742;2024-01-15T10:23:32;25.03;;;16.23;;
4595;SDS011;2310;49.978;8.742;2024-01-15T10:27:35;22.57;;;15.10;;
4595;SDS011;2310;49.978;8.742;2024-01-15T10:31:37;29.93;;;16.23;;
4595;SDS011;2310;49.978;8.742;2024-01-15T10:35:39;22.73;;;14.70;;
4595;SDS011;2310;49.978;8.742;2024-01-15T10:39:41;22.90;;;14.03;;
4595;SDS011;2310;49.978;8.742;2024-01-15T10:43:44;22.83;;;14.83;;
4595;SDS011;2310;49.978;8.742;2024-01-15T10:47:46;22.50;;;15.30;;
4595;SDS011;2310;49.978;8.742;2024-01-15T10:51:47;20.33;;;13.87;;
4595;SDS011;2310;49.978;8.742;2024-01-15T10:55:50;21.90;;;14.00;;
4595;SDS011;2310;49.978;8.742;2024-01-15T10:59:52;20.47;;;13.33;;
4595;SDS011;2310;49.978;8.742;2024-01-15T11:03:54;22.57;;;13.87;;
4595;SDS011;2310;49.978;8.742;2024-01-15T11:07:58;24.47;;;14.47;;
4595;SDS011;2310;49.978;8.742;2024-01-15T11:12:08;22.67;;;14.53;;
4595;SDS011;2310;49.978;8.742;2024-01-15T11:16:13;21.67;;;13.60;;
4595;SDS011;2310;49.978;8.742;2024-01-15T11:20:16;20.13;;;13.63;;
4595;SDS011;2310;49.978;8.742;2024-01-15T11:24:37;21.27;;;14.43;;
4595;SDS011;2310;49.978;8.742;2024-01-15T11:28:47;20.97;;;13.30;;
4595;SDS011;2310;49.978;8.742;2024-01-15T11:32:49;19.67;;;14.43;;
4595;SDS011;2310;49.978;8.742;2024-01-15T11:40:56;19.90;;;13.40;;
4595;SDS011;2310;49.978;8.742;2024-01-15T11:45:00;18.47;;;10.87;;
4595;SDS011;2310;49.978;8.742;2024-01-15T11:49:03;16.77;;;11.77;;
4595;SDS011;2310;49.978;8.742;2024-01-15T11:53:09;15.93;;;11.27;;
4595;SDS011;2310;49.978;8.742;2024-01-15T11:57:33;27.40;;;8.60;;
4595;SDS011;2310;49.978;8.742;2024-01-15T12:01:36;19.10;;;9.83;;
4595;SDS011;2310;49.978;8.742;2024-01-15T12:05:37;16.67;;;11.27;;
4595;SDS011;2310;49.978;8.742;2024-01-15T12:09:43;16.10;;;10.87;;
4595;SDS011;2310;49.978;8.742;2024-01-15T12:13:45;15.37;;;9.00;;
4595;SDS011;2310;49.978;8.742;2024-01-15T12:17:46;17.83;;;11.70;;
4595;SDS011;2310;49.978;8.742;2024-01-15T12:21:51;16.90;;;10.90;;
4595;SDS011;2310;49.978;8.742;2024-01-15T12:25:52;13.90;;;10.73;;
4595;SDS011;2310;49.978;8.742;2024-01-15T12:29:54;15.33;;;10.10;;
4595;SDS011;2310;49.978;8.742;2024-01-15T12:33:55;15.90;;;9.77;;
4595;SDS011;2310;49.978;8.742;2024-01-15T12:37:59;16.47;;;12.07;;
4595;SDS011;2310;49.978;8.742;2024-01-15T12:42:03;15.73;;;10.73;;
4595;SDS011;2310;49.978;8.742;2024-01-15T12:46:07;14.03;;;9.50;;
4595;SDS011;2310;49.978;8.742;2024-01-15T12:50:09;16.80;;;10.37;;
4595;SDS011;2310;49.978;8.742;2024-01-15T12:54:14;16.00;;;9.97;;
4595;SDS011;2310;49.978;8.742;2024-01-15T12:58:16;14.20;;;9.50;;
4595;SDS011;2310;49.978;8.742;2024-01-15T13:02:19;15.37;;;10.30;;
4595;SDS011;2310;49.978;8.742;2024-01-15T13:06:20;14.00;;;9.87;;
4595;SDS011;2310;49.978;8.742;2024-01-15T13:10:22;16.23;;;10.23;;
4595;SDS011;2310;49.978;8.742;2024-01-15T13:14:25;18.10;;;10.07;;
4595;SDS011;2310;49.978;8.742;2024-01-15T13:18:27;16.00;;;10.97;;
4595;SDS011;2310;49.978;8.742;2024-01-15T13:22:29;17.87;;;10.83;;
4595;SDS011;2310;49.978;8.742;2024-01-15T13:26:34;13.20;;;8.53;;
4595;SDS011;2310;49.978;8.742;2024-01-15T13:30:38;14.37;;;10.47;;
4595;SDS011;2310;49.978;8.742;2024-01-15T13:34:39;14.97;;;9.93;;
4595;SDS011;2310;49.978;8.742;2024-01-15T13:38:42;14.40;;;9.47;;
4595;SDS011;2310;49.978;8.742;2024-01-15T13:42:44;13.97;;;8.50;;
4595;SDS011;2310;49.978;8.742;2024-01-15T13:46:46;13.63;;;9.20;;
4595;SDS011;2310;49.978;8.742;2024-01-15T13:50:48;11.90;;;8.57;;
4595;SDS011;2310;49.978;8.742;2024-01-15T13:54:49;14.90;;;9.67;;
4595;SDS011;2310;49.978;8.742;2024-01-15T13:58:51;13.70;;;8.73;;
4595;SDS011;2310;49.978;8.742;2024-01-15T14:02:53;11.43;;;7.90;;
4595;SDS011;2310;49.978;8.742;2024-01-15T14:06:54;13.97;;;7.17;;
4595;SDS011;2310;49.978;8.742;2024-01-15T14:10:55;13.00;;;8.53;;
4595;SDS011;2310;49.978;8.742;2024-01-15T14:14:59;12.07;;;7.70;;
4595;SDS011;2310;49.978;8.742;2024-01-15T14:19:00;15.73;;;8.83;;
4595;SDS011;2310;49.978;8.742;2024-01-15T14:23:03;12.17;;;7.90;;
4595;SDS011;2310;49.978;8.742;2024-01-15T14:27:05;11.97;;;7.30;;
4595;SDS011;2310;49.978;8.742;2024-01-15T14:31:08;10.40;;;7.23;;
4595;SDS011;2310;49.978;8.742;2024-01-15T14:35:10;11.10;;;7.10;;
4595;SDS011;2310;49.978;8.742;2024-01-15T14:39:11;10.40;;;7.93;;
4595;SDS011;2310;49.978;8.742;2024-01-15T14:43:13;16.23;;;9.03;;
4595;SDS011;2310;49.978;8.742;2024-01-15T14:47:14;12.07;;;8.43;;
4595;SDS011;2310;49.978;8.742;2024-01-15T14:51:16;12.63;;;7.70;;
4595;SDS011;2310;49.978;8.742;2024-01-15T14:55:18;16.00;;;9.07;;
4595;SDS011;2310;49.978;8.742;2024-01-15T14:59:19;12.37;;;7.77;;
4595;SDS011;2310;49.978;8.742;2024-01-15T15:03:20;10.90;;;6.80;;
4595;SDS011;2310;49.978;8.742;2024-01-15T15:07:22;10.63;;;6.83;;
4595;SDS011;2310;49.978;8.742;2024-01-15T15:11:23;10.60;;;6.73;;
4595;SDS011;2310;49.978;8.742;2024-01-15T15:15:25;10.23;;;6.77;;
4595;SDS011;2310;49.978;8.742;2024-01-15T15:19:26;9.70;;;6.63;;
4595;SDS011;2310;49.978;8.742;2024-01-15T15:23:28;9.33;;;6.27;;
4595;SDS011;2310;49.978;8.742;2024-01-15T15:27:29;12.27;;;5.90;;
4595;SDS011;2310;49.978;8.742;2024-01-15T15:31:31;11.60;;;6.47;;
4595;SDS011;2310;49.978;8.742;2024-01-15T15:35:32;10.90;;;5.73;;
4595;SDS011;2310;49.978;8.742;2024-01-15T15:39:34;12.57;;;5.47;;
4595;SDS011;2310;49.978;8.742;2024-01-15T15:43:35;13.70;;;6.50;;
4595;SDS011;2310;49.978;8.742;2024-01-15T15:47:36;8.80;;;5.20;;
4595;SDS011;2310;49.978;8.742;2024-01-15T15:51:38;7.60;;;5.60;;
4595;SDS011;2310;49.978;8.742;2024-01-15T15:55:41;9.07;;;4.60;;
4595;SDS011;2310;49.978;8.742;2024-01-15T15:59:43;8.90;;;5.67;;
4595;SDS011;2310;49.978;8.742;2024-01-15T16:03:44;8.67;;;4.80;;
4595;SDS011;2310;49.978;8.742;2024-01-15T16:07:46;8.13;;;4.50;;
4595;SDS011;2310;49.978;8.742;2024-01-15T16:11:48;7.77;;;4.53;;
4595;SDS011;2310;49.978;8.742;2024-01-15T16:15:50;7.60;;;4.80;;
4595;SDS011;2310;49.978;8.742;2024-01-15T16:19:52;9.23;;;4.70;;
4595;SDS011;2310;49.978;8.742;2024-01-15T16:23:55;8.63;;;5.23;;
4595;SDS011;2310;49.978;8.742;2024-01-15T16:27:58;8.97;;;5.50;;
4595;SDS011;2310;49.978;8.742;2024-01-15T16:32:00;7.73;;;4.40;;
4595;SDS011;2310;49.978;8.742;2024-01-15T16:36:01;8.27;;;4.60;;
4595;SDS011;2310;49.978;8.742;2024-01-15T16:40:03;7.07;;;4.13;;
4595;SDS011;2310;49.978;8.742;2024-01-15T16:44:06;7.27;;;4.37;;
4595;SDS011;2310;49.978;8.742;2024-01-15T16:48:08;9.77;;;4.00;;
4595;SDS011;2310;49.978;8.742;2024-01-15T16:52:10;9.20;;;3.83;;
4595;SDS011;2310;49.978;8.742;2024-01-15T16:56:13;11.00;;;4.47;;
4595;SDS011;2310;49.978;8.742;2024-01-15T17:00:15;6.87;;;3.10;;
4595;SDS011;2310;49.978;8.742;2024-01-15T17:04:16;7.13;;;3.43;;
4595;SDS011;2310;49.978;8.742;2024-01-15T17:08:18;8.90;;;3.67;;
4595;SDS011;2310;49.978;8.742;2024-01-15T17:12:19;6.63;;;3.30;;
4595;SDS011;2310;49.978;8.742;2024-01-15T17:16:21;7.93;;;3.43;;
4595;SDS011;2310;49.978;8.742;2024-01-15T17:20:23;6.90;;;3.13;;
4595;SDS011;2310;49.978;8.742;2024-01-15T17:24:25;7.40;;;2.93;;
4595;SDS011;2310;49.978;8.742;2024-01-15T17:28:26;6.43;;;3.70;;
4595;SDS011;2310;49.978;8.742;2024-01-15T17:32:28;6.73;;;3.63;;
4595;SDS011;2310;49.978;8.742;2024-01-15T17:36:29;8.50;;;3.90;;
4595;SDS011;2310;49.978;8.742;2024-01-15T17:40:31;6.40;;;3.60;;
4595;SDS011;2310;49.978;8.742;2024-01-15T17:44:33;5.80;;;2.93;;
4595;SDS011;2310;49.978;8.742;2024-01-15T17:48:34;8.30;;;4.10;;
4595;SDS011;2310;49.978;8.742;2024-01-15T17:52:36;5.53;;;3.47;;
4595;SDS011;2310;49.978;8.742;2024-01-15T17:56:40;6.10;;;3.50;;
4595;SDS011;2310;49.978;8.742;2024-01-15T18:00:41;8.30;;;4.03;;
4595;SDS011;2310;49.978;8.742;2024-01-15T18:04:43;8.83;;;3.97;;
4595;SDS011;2310;49.978;8.742;2024-01-15T18:08:45;6.90;;;4.30;;
4595;SDS011;2310;49.978;8.742;2024-01-15T18:12:46;6.13;;;3.70;;
4595;SDS011;2310;49.978;8.742;2024-01-15T18:16:48;6.40;;;3.20;;
4595;SDS011;2310;49.978;8.742;2024-01-15T18:20:51;6.57;;;3.47;;
4595;SDS011;2310;49.978;8.742;2024-01-15T18:24:53;5.23;;;3.30;;
4595;SDS011;2310;49.978;8.742;2024-01-15T18:28:55;6.63;;;3.17;;
4595;SDS011;2310;49.978;8.742;2024-01-15T18:32:56;6.23;;;2.97;;
4595;SDS011;2310;49.978;8.742;2024-01-15T18:36:58;5.03;;;3.03;;
4595;SDS011;2310;49.978;8.742;2024-01-15T18:40:59;6.47;;;3.13;;
4595;SDS011;2310;49.978;8.742;2024-01-15T18:45:04;5.60;;;3.97;;
4595;SDS011;2310;49.978;8.742;2024-01-15T18:49:06;7.13;;;3.70;;
4595;SDS011;2310;49.978;8.742;2024-01-15T18:53:09;4.80;;;3.37;;
4595;SDS011;2310;49.978;8.742;2024-01-15T18:57:10;5.80;;;3.00;;
4595;SDS011;2310;49.978;8.742;2024-01-15T19:01:12;4.80;;;2.67;;
4595;SDS011;2310;49.978;8.742;2024-01-15T19:05:14;6.43;;;3.00;;
4595;SDS011;2310;49.978;8.742;2024-01-15T19:09:16;5.73;;;2.87;;
4595;SDS011;2310;49.978;8.742;2024-01-15T19:13:17;12.20;;;3.60;;
4595;SDS011;2310;49.978;8.742;2024-01-15T19:17:19;5.60;;;3.47;;
4595;SDS011;2310;49.978;8.742;2024-01-15T19:21:20;5.40;;;2.80;;
4595;SDS011;2310;49.978;8.742;2024-01-15T19:25:22;6.93;;;4.10;;
4595;SDS011;2310;49.978;8.742;2024-01-15T19:29:23;7.30;;;3.50;;
4595;SDS011;2310;49.978;8.742;2024-01-15T19:33:26;7.67;;;3.57;;
4595;SDS011;2310;49.978;8.742;2024-01-15T19:37:27;11.37;;;5.10;;
4595;SDS011;2310;49.978;8.742;2024-01-15T19:41:29;8.03;;;3.60;;
4595;SDS011;2310;49.978;8.742;2024-01-15T19:45:30;6.70;;;4.23;;
4595;SDS011;2310;49.978;8.742;2024-01-15T19:49:32;8.60;;;4.60;;
4595;SDS011;2310;49.978;8.742;2024-01-15T19:53:33;7.13;;;4.43;;
4595;SDS011;2310;49.978;8.742;2024-01-15T19:57:35;8.97;;;4.00;;
4595;SDS011;2310;49.978;8.742;2024-01-15T20:01:36;6.03;;;3.97;;
4595;SDS011;2310;49.978;8.742;2024-01-15T20:05:38;7.00;;;3.40;;
4595;SDS011;2310;49.978;8.742;2024-01-15T20:09:40;6.63;;;2.90;;
4595;SDS011;2310;49.978;8.742;2024-01-15T20:13:42;6.30;;;3.00;;
4595;SDS011;2310;49.978;8.742;2024-01-15T20:17:44;7.27;;;2.97;;
4595;SDS011;2310;49.978;8.742;2024-01-15T20:21:45;6.00;;;3.30;;
4595;SDS011;2310;49.978;8.742;2024-01-15T20:25:47;6.53;;;3.23;;
4595;SDS011;2310;49.978;8.742;2024-01-15T20:29:48;5.90;;;2.60;;
4595;SDS011;2310;49.978;8.742;2024-01-15T20:33:50;5.03;;;2.10;;
4595;SDS011;2310;49.978;8.742;2024-01-15T20:37:52;11.17;;;3.73;;
4595;SDS011;2310;49.978;8.742;2024-01-15T20:41:55;6.43;;;3.00;;
4595;SDS011;2310;49.978;8.742;2024-01-15T20:45:57;10.37;;;3.30;;
4595;SDS011;2310;49.978;8.742;2024-01-15T20:49:59;7.57;;;2.80;;
4595;SDS011;2310;49.978;8.742;2024-01-15T20:54:00;5.20;;;3.33;;
4595;SDS011;2310;49.978;8.742;2024-01-15T20:58:02;6.50;;;3.03;;
4595;SDS011;2310;49.978;8.742;2024-01-15T21:02:05;5.50;;;2.90;;
4595;SDS011;2310;49.978;8.742;2024-01-15T21:06:06;7.20;;;3.70;;
4595;SDS011;2310;49.978;8.742;2024-01-15T21:10:09;5.97;;;3.80;;
4595;SDS011;2310;49.978;8.742;2024-01-15T21:14:11;5.17;;;3.13;;
4595;SDS011;2310;49.978;8.742;2024-01-15T21:18:14;14.63;;;4.30;;
4595;SDS011;2310;49.978;8.742;2024-01-15T21:22:17;7.67;;;3.23;;
4595;SDS011;2310;49.978;8.742;2024-01-15T21:26:19;4.83;;;3.00;;
4595;SDS011;2310;49.978;8.742;2024-01-15T21:30:21;6.83;;;2.90;;
4595;SDS011;2310;49.978;8.742;2024-01-15T21:34:23;5.43;;;3.40;;
4595;SDS011;2310;49.978;8.742;2024-01-15T21:38:24;8.13;;;3.10;;
4595;SDS011;2310;49.978;8.742;2024-01-15T21:42:27;5.33;;;3.73;;
4595;SDS011;2310;49.978;8.742;2024-01-15T21:46:28;5.23;;;3.40;;
4595;SDS011;2310;49.978;8.742;2024-01-15T21:50:29;6.07;;;3.30;;
4595;SDS011;2310;49.978;8.742;2024-01-15T21:54:31;7.27;;;3.50;;
4595;SDS011;2310;49.978;8.742;2024-01-15T21:58:32;6.80;;;3.03;;
4595;SDS011;2310;49.978;8.742;2024-01-15T22:02:33;5.27;;;2.80;;
4595;SDS011;2310;49.978;8.742;2024-01-15T22:06:37;4.97;;;2.50;;
4595;SDS011;2310;49.978;8.742;2024-01-15T22:10:38;7.03;;;3.13;;
4595;SDS011;2310;49.978;8.742;2024-01-15T22:14:40;6.20;;;3.40;;
4595;SDS011;2310;49.978;8.742;2024-01-15T22:18:41;7.10;;;3.73;;
4595;SDS011;2310;49.978;8.742;2024-01-15T22:22:43;7.13;;;3.53;;
4595;SDS011;2310;49.978;8.742;2024-01-15T22:26:45;9.37;;;5.10;;
4595;SDS011;2310;49.978;8.742;2024-01-15T22:30:46;13.63;;;5.97;;
4595;SDS011;2310;49.978;8.742;2024-01-15T22:34:48;11.30;;;5.53;;
4595;SDS011;2310;49.978;8.742;2024-01-15T22:38:50;8.40;;;4.60;;
4595;SDS011;2310;49.978;8.742;2024-01-15T22:42:52;6.10;;;3.53;;
4595;SDS011;2310;49.978;8.742;2024-01-15T22:46:53;6.50;;;4.30;;
4595;SDS011;2310;49.978;8.742;2024-01-15T22:50:54;6.37;;;3.60;;
4595;SDS011;2310;49.978;8.742;2024-01-15T22:54:56;7.10;;;3.57;;
4595;SDS011;2310;49.978;8.742;2024-01-15T22:58:57;7.97;;;3.87;;
4595;SDS011;2310;49.978;8.742;2024-01-15T23:02:59;7.53;;;4.17;;
4595;SDS011;2310;49.978;8.742;2024-01-15T23:07:02;5.70;;;4.23;;
4595;SDS011;2310;49.978;8.742;2024-01-15T23:11:05;10.43;;;4.47;;
4595;SDS011;2310;49.978;8.742;2024-01-15T23:15:08;6.80;;;3.97;;
4595;SDS011;2310;49.978;8.742;2024-01-15T23:19:10;10.47;;;6.07;;
4595;SDS011;2310;49.978;8.742;2024-01-15T23:23:11;8.73;;;5.17;;
4595;SDS011;2310;49.978;8.742;2024-01-15T23:27:13;8.87;;;5.70;;
4595;SDS011;2310;49.978;8.742;2024-01-15T23:31:14;13.93;;;5.47;;
4595;SDS011;2310;49.978;8.742;2024-01-15T23:35:15;6.93;;;4.40;;
4595;SDS011;2310;49.978;8.742;2024-01-15T23:39:17;7.97;;;5.80;;
4595;SDS011;2310;49.978;8.742;2024-01-15T23:43:18;6.50;;;4.97;;
4595;SDS011;2310;49.978;8.742;2024-01-15T23:47:19;7.20;;;4.50;;
4595;SDS011;2310;49.978;8.742;2024-01-15T23:51:21;7.63;;;5.27;;
4595;SDS011;2310;49.978;8.742;2024-01-15T23:55:22;7.03;;;4.70;;
4595;SDS011;2310;49.978;8.742;2024-01-15T23:59:24;6.10;;;4.33;;
